首页
METAR-TAF:

METAR-TAF

机场 :

Pitt-Greenville Airport

格林维尔, 北卡罗来纳州, 美国

纬度: 35-38N, 经度: 077-24W, 海拔: 8米

当前天气观测

该预报发布于10分钟前的19:25 UTC
风速5节,风向西
温度 28°C
湿度 58%
气压 1022 hPa
能見度: 16.1公里
天空无云

METAR: KPGV 231925Z AUTO 27005KT 10SM CLR 28/19 A3019 RMK AO2

时间: 15:35 (19:35 UTC)

预报

该预报发布于2小时和3分钟前的17:32 UTC
预报有效从23日的 18点(UTC)到 24日的 18点(UTC)
风速8节,风向西转西南,有时为13节阵风
能見度: 10公里
多云层高于9000英尺
从 23日的 2300点(UTC)
风速7节,风向西南
能見度: 10公里
散云层高于25000英尺
从 24日的 1300点(UTC)
风速8节,风向西
能見度: 10公里
少量云层高于25000英尺

TAF: KPGV 231732Z 2318/2418 24008G13KT P6SM BKN090 FM232300 23007KT P6SM SCT250 FM241300 28008KT P6SM FEW250 AMD LTD TO CLD VIS AND WIND

超过4000个机场的气象观测和天气预报(METAR&TAF报告)。

可查询的气象台以黄色和红色小点在地图上表示。

将鼠标移到小点上方,可查看气象台名称。

然后点击查看天气观测和预报。

如需切换地图:点击带黑十字的绿色按钮放大地图;点击带横线的绿色按钮缩小地图;或者点击绿色箭头查看邻近地区的地图。


METAR-TAF: